sensor_id;sensor_type;location;lat;lon;timestamp;temperature;humidity
12233;DHT22;6179;51.748;8.728;2023-10-08T00:01:43;19.20;94.70
12233;DHT22;6179;51.748;8.728;2023-10-08T00:07:44;19.10;95.20
12233;DHT22;6179;51.748;8.728;2023-10-08T00:13:45;19.20;95.10
12233;DHT22;6179;51.748;8.728;2023-10-08T00:19:48;19.20;95.10
12233;DHT22;6179;51.748;8.728;2023-10-08T00:25:53;19.30;95.00
12233;DHT22;6179;51.748;8.728;2023-10-08T00:31:55;19.20;94.70
12233;DHT22;6179;51.748;8.728;2023-10-08T00:37:57;19.00;95.50
12233;DHT22;6179;51.748;8.728;2023-10-08T00:44:00;18.80;96.10
12233;DHT22;6179;51.748;8.728;2023-10-08T00:50:01;18.60;97.00
12233;DHT22;6179;51.748;8.728;2023-10-08T00:56:07;19.00;96.00
12233;DHT22;6179;51.748;8.728;2023-10-08T01:02:15;18.80;96.20
12233;DHT22;6179;51.748;8.728;2023-10-08T01:08:20;18.80;96.90
12233;DHT22;6179;51.748;8.728;2023-10-08T01:14:36;18.80;96.80
12233;DHT22;6179;51.748;8.728;2023-10-08T01:20:37;18.80;97.10
12233;DHT22;6179;51.748;8.728;2023-10-08T01:26:37;19.00;96.20
12233;DHT22;6179;51.748;8.728;2023-10-08T01:32:39;19.10;96.90
12233;DHT22;6179;51.748;8.728;2023-10-08T01:38:41;18.60;98.30
12233;DHT22;6179;51.748;8.728;2023-10-08T01:44:49;18.50;98.30
12233;DHT22;6179;51.748;8.728;2023-10-08T01:50:56;18.50;98.30
12233;DHT22;6179;51.748;8.728;2023-10-08T01:57:01;18.30;98.30
12233;DHT22;6179;51.748;8.728;2023-10-08T02:03:03;17.90;98.30
12233;DHT22;6179;51.748;8.728;2023-10-08T02:09:08;18.00;98.30
12233;DHT22;6179;51.748;8.728;2023-10-08T02:15:09;17.90;98.30
12233;DHT22;6179;51.748;8.728;2023-10-08T02:21:11;17.80;98.30
12233;DHT22;6179;51.748;8.728;2023-10-08T02:27:12;18.20;98.30
12233;DHT22;6179;51.748;8.728;2023-10-08T02:33:15;18.40;98.30
12233;DHT22;6179;51.748;8.728;2023-10-08T02:39:16;17.60;98.30
12233;DHT22;6179;51.748;8.728;2023-10-08T02:45:21;16.40;98.30
12233;DHT22;6179;51.748;8.728;2023-10-08T02:51:22;16.10;98.30
12233;DHT22;6179;51.748;8.728;2023-10-08T02:57:24;15.80;98.30
12233;DHT22;6179;51.748;8.728;2023-10-08T03:03:28;15.50;98.30
12233;DHT22;6179;51.748;8.728;2023-10-08T03:09:29;15.50;98.30
12233;DHT22;6179;51.748;8.728;2023-10-08T03:15:33;15.40;98.30
12233;DHT22;6179;51.748;8.728;2023-10-08T03:21:41;15.40;98.30
12233;DHT22;6179;51.748;8.728;2023-10-08T03:27:41;15.10;98.30
12233;DHT22;6179;51.748;8.728;2023-10-08T03:33:42;14.80;98.30
12233;DHT22;6179;51.748;8.728;2023-10-08T03:39:43;14.60;98.30
12233;DHT22;6179;51.748;8.728;2023-10-08T03:46:03;14.60;98.30
12233;DHT22;6179;51.748;8.728;2023-10-08T03:52:06;14.40;98.30
12233;DHT22;6179;51.748;8.728;2023-10-08T03:58:08;14.40;98.30
12233;DHT22;6179;51.748;8.728;2023-10-08T04:04:21;14.70;98.30
12233;DHT22;6179;51.748;8.728;2023-10-08T04:10:24;14.50;98.30
12233;DHT22;6179;51.748;8.728;2023-10-08T04:16:43;14.20;98.30
12233;DHT22;6179;51.748;8.728;2023-10-08T04:22:44;14.00;98.30
12233;DHT22;6179;51.748;8.728;2023-10-08T04:28:44;13.90;98.30
12233;DHT22;6179;51.748;8.728;2023-10-08T04:34:49;14.20;98.30
12233;DHT22;6179;51.748;8.728;2023-10-08T04:40:50;13.90;98.30
12233;DHT22;6179;51.748;8.728;2023-10-08T04:46:52;14.20;98.30
12233;DHT22;6179;51.748;8.728;2023-10-08T04:52:53;14.00;98.30
12233;DHT22;6179;51.748;8.728;2023-10-08T04:58:59;13.60;98.30
12233;DHT22;6179;51.748;8.728;2023-10-08T05:05:00;13.40;98.30
12233;DHT22;6179;51.748;8.728;2023-10-08T05:11:10;13.40;98.30
12233;DHT22;6179;51.748;8.728;2023-10-08T05:17:37;13.30;98.30
12233;DHT22;6179;51.748;8.728;2023-10-08T05:23:56;13.20;98.30
12233;DHT22;6179;51.748;8.728;2023-10-08T05:30:13;13.30;98.30
12233;DHT22;6179;51.748;8.728;2023-10-08T05:36:25;13.60;98.30
12233;DHT22;6179;51.748;8.728;2023-10-08T05:42:36;13.20;98.30
12233;DHT22;6179;51.748;8.728;2023-10-08T05:48:46;13.30;98.30
12233;DHT22;6179;51.748;8.728;2023-10-08T05:55:01;13.00;98.30
12233;DHT22;6179;51.748;8.728;2023-10-08T06:01:24;12.80;98.30
12233;DHT22;6179;51.748;8.728;2023-10-08T06:07:50;12.70;98.30
12233;DHT22;6179;51.748;8.728;2023-10-08T06:13:54;12.80;98.30
12233;DHT22;6179;51.748;8.728;2023-10-08T06:20:01;12.50;98.30
12233;DHT22;6179;51.748;8.728;2023-10-08T06:26:10;12.30;98.30
12233;DHT22;6179;51.748;8.728;2023-10-08T06:32:10;12.10;98.30
12233;DHT22;6179;51.748;8.728;2023-10-08T06:38:12;12.20;98.30
12233;DHT22;6179;51.748;8.728;2023-10-08T06:44:15;12.40;98.30
12233;DHT22;6179;51.748;8.728;2023-10-08T06:50:16;12.30;98.30
12233;DHT22;6179;51.748;8.728;2023-10-08T06:56:17;12.20;98.30
12233;DHT22;6179;51.748;8.728;2023-10-08T07:02:20;12.00;98.30
12233;DHT22;6179;51.748;8.728;2023-10-08T07:08:22;11.80;98.30
12233;DHT22;6179;51.748;8.728;2023-10-08T07:14:28;11.30;98.30
12233;DHT22;6179;51.748;8.728;2023-10-08T07:20:28;11.30;98.30
12233;DHT22;6179;51.748;8.728;2023-10-08T07:26:29;11.50;98.30
12233;DHT22;6179;51.748;8.728;2023-10-08T07:32:36;11.70;98.30
12233;DHT22;6179;51.748;8.728;2023-10-08T07:38:46;11.60;98.30
12233;DHT22;6179;51.748;8.728;2023-10-08T07:44:47;11.60;98.30
12233;DHT22;6179;51.748;8.728;2023-10-08T07:50:47;12.10;98.30
12233;DHT22;6179;51.748;8.728;2023-10-08T07:56:51;12.10;98.30
12233;DHT22;6179;51.748;8.728;2023-10-08T08:02:52;11.80;98.30
12233;DHT22;6179;51.748;8.728;2023-10-08T08:08:55;11.90;98.30
12233;DHT22;6179;51.748;8.728;2023-10-08T08:14:56;12.20;98.30
12233;DHT22;6179;51.748;8.728;2023-10-08T08:20:56;11.90;98.30
12233;DHT22;6179;51.748;8.728;2023-10-08T08:27:02;12.00;98.30
12233;DHT22;6179;51.748;8.728;2023-10-08T08:33:11;12.00;98.30
12233;DHT22;6179;51.748;8.728;2023-10-08T08:39:12;12.30;98.30
12233;DHT22;6179;51.748;8.728;2023-10-08T08:45:29;12.20;98.30
12233;DHT22;6179;51.748;8.728;2023-10-08T08:51:34;12.30;98.30
12233;DHT22;6179;51.748;8.728;2023-10-08T08:57:39;12.50;98.30
12233;DHT22;6179;51.748;8.728;2023-10-08T09:03:40;12.40;98.30
12233;DHT22;6179;51.748;8.728;2023-10-08T09:09:41;13.00;98.30
12233;DHT22;6179;51.748;8.728;2023-10-08T09:15:41;12.90;98.30
12233;DHT22;6179;51.748;8.728;2023-10-08T09:21:42;13.70;98.30
12233;DHT22;6179;51.748;8.728;2023-10-08T09:27:43;13.70;98.30
12233;DHT22;6179;51.748;8.728;2023-10-08T09:33:56;13.40;98.30
12233;DHT22;6179;51.748;8.728;2023-10-08T09:39:58;13.20;98.30
12233;DHT22;6179;51.748;8.728;2023-10-08T09:52:16;13.90;97.90
12233;DHT22;6179;51.748;8.728;2023-10-08T09:58:18;14.00;98.30
12233;DHT22;6179;51.748;8.728;2023-10-08T10:04:23;14.40;96.20
12233;DHT22;6179;51.748;8.728;2023-10-08T10:10:32;14.10;98.30
12233;DHT22;6179;51.748;8.728;2023-10-08T10:16:39;13.90;98.30
12233;DHT22;6179;51.748;8.728;2023-10-08T10:22:42;14.10;95.80
12233;DHT22;6179;51.748;8.728;2023-10-08T10:28:44;14.50;96.00
12233;DHT22;6179;51.748;8.728;2023-10-08T10:34:45;14.80;92.60
12233;DHT22;6179;51.748;8.728;2023-10-08T10:40:52;14.80;92.30
12233;DHT22;6179;51.748;8.728;2023-10-08T10:46:59;14.80;92.00
12233;DHT22;6179;51.748;8.728;2023-10-08T10:53:18;14.90;93.40
12233;DHT22;6179;51.748;8.728;2023-10-08T10:59:19;14.60;94.10
12233;DHT22;6179;51.748;8.728;2023-10-08T11:05:20;14.80;94.80
12233;DHT22;6179;51.748;8.728;2023-10-08T11:11:28;15.30;90.60
12233;DHT22;6179;51.748;8.728;2023-10-08T11:17:32;15.30;93.20
12233;DHT22;6179;51.748;8.728;2023-10-08T11:23:35;15.40;88.70
12233;DHT22;6179;51.748;8.728;2023-10-08T11:29:36;15.20;87.30
12233;DHT22;6179;51.748;8.728;2023-10-08T11:35:38;15.40;88.10
12233;DHT22;6179;51.748;8.728;2023-10-08T11:42:04;15.00;89.50
12233;DHT22;6179;51.748;8.728;2023-10-08T11:48:17;14.60;90.00
12233;DHT22;6179;51.748;8.728;2023-10-08T11:54:26;15.00;86.30
12233;DHT22;6179;51.748;8.728;2023-10-08T12:00:27;14.80;88.90
12233;DHT22;6179;51.748;8.728;2023-10-08T12:06:28;15.10;89.50
12233;DHT22;6179;51.748;8.728;2023-10-08T12:12:33;15.10;87.70
12233;DHT22;6179;51.748;8.728;2023-10-08T12:18:36;15.30;87.60
12233;DHT22;6179;51.748;8.728;2023-10-08T12:24:40;15.70;83.60
12233;DHT22;6179;51.748;8.728;2023-10-08T12:30:40;15.40;86.20
12233;DHT22;6179;51.748;8.728;2023-10-08T12:36:44;15.60;87.70
12233;DHT22;6179;51.748;8.728;2023-10-08T12:42:46;15.60;88.00
12233;DHT22;6179;51.748;8.728;2023-10-08T12:48:48;15.70;86.10
12233;DHT22;6179;51.748;8.728;2023-10-08T12:54:52;16.10;87.60
12233;DHT22;6179;51.748;8.728;2023-10-08T13:00:53;16.20;83.00
12233;DHT22;6179;51.748;8.728;2023-10-08T13:06:58;16.00;86.70
12233;DHT22;6179;51.748;8.728;2023-10-08T13:13:01;16.40;87.30
12233;DHT22;6179;51.748;8.728;2023-10-08T13:19:03;16.30;87.70
12233;DHT22;6179;51.748;8.728;2023-10-08T13:25:04;16.00;85.50
12233;DHT22;6179;51.748;8.728;2023-10-08T13:31:05;15.60;86.10
12233;DHT22;6179;51.748;8.728;2023-10-08T13:37:12;15.90;85.40
12233;DHT22;6179;51.748;8.728;2023-10-08T13:43:14;16.00;84.70
12233;DHT22;6179;51.748;8.728;2023-10-08T13:49:17;16.30;85.80
12233;DHT22;6179;51.748;8.728;2023-10-08T13:55:18;16.20;82.50
12233;DHT22;6179;51.748;8.728;2023-10-08T14:01:19;16.40;82.10
12233;DHT22;6179;51.748;8.728;2023-10-08T14:07:20;16.40;80.40
12233;DHT22;6179;51.748;8.728;2023-10-08T14:13:22;16.50;79.90
12233;DHT22;6179;51.748;8.728;2023-10-08T14:19:24;16.20;81.60
12233;DHT22;6179;51.748;8.728;2023-10-08T14:25:33;16.20;81.50
12233;DHT22;6179;51.748;8.728;2023-10-08T14:31:43;16.40;82.60
12233;DHT22;6179;51.748;8.728;2023-10-08T14:37:49;16.20;81.80
12233;DHT22;6179;51.748;8.728;2023-10-08T14:44:08;16.30;80.10
12233;DHT22;6179;51.748;8.728;2023-10-08T14:50:09;16.00;80.40
12233;DHT22;6179;51.748;8.728;2023-10-08T14:56:16;16.30;81.80
12233;DHT22;6179;51.748;8.728;2023-10-08T15:02:19;16.40;84.40
12233;DHT22;6179;51.748;8.728;2023-10-08T15:08:19;16.50;82.90
12233;DHT22;6179;51.748;8.728;2023-10-08T15:14:21;16.10;84.00
12233;DHT22;6179;51.748;8.728;2023-10-08T15:20:23;16.20;84.80
12233;DHT22;6179;51.748;8.728;2023-10-08T15:26:25;16.30;83.30
12233;DHT22;6179;51.748;8.728;2023-10-08T15:32:25;16.00;84.30
12233;DHT22;6179;51.748;8.728;2023-10-08T15:38:26;16.00;85.00
12233;DHT22;6179;51.748;8.728;2023-10-08T15:44:27;16.00;86.30
12233;DHT22;6179;51.748;8.728;2023-10-08T15:50:28;15.70;87.50
12233;DHT22;6179;51.748;8.728;2023-10-08T15:56:32;16.00;87.20
12233;DHT22;6179;51.748;8.728;2023-10-08T16:02:32;15.80;88.50
12233;DHT22;6179;51.748;8.728;2023-10-08T16:08:33;15.90;90.10
12233;DHT22;6179;51.748;8.728;2023-10-08T16:14:34;15.50;89.20
12233;DHT22;6179;51.748;8.728;2023-10-08T16:20:35;15.50;89.80
12233;DHT22;6179;51.748;8.728;2023-10-08T16:26:36;15.20;88.70
12233;DHT22;6179;51.748;8.728;2023-10-08T16:32:36;15.00;92.30
12233;DHT22;6179;51.748;8.728;2023-10-08T16:38:38;15.00;89.90
12233;DHT22;6179;51.748;8.728;2023-10-08T16:44:38;14.90;88.90
12233;DHT22;6179;51.748;8.728;2023-10-08T16:50:39;14.70;93.10
12233;DHT22;6179;51.748;8.728;2023-10-08T16:56:41;14.80;91.00
12233;DHT22;6179;51.748;8.728;2023-10-08T17:02:41;14.30;93.50
12233;DHT22;6179;51.748;8.728;2023-10-08T17:08:42;14.10;92.80
12233;DHT22;6179;51.748;8.728;2023-10-08T17:14:43;14.00;92.90
12233;DHT22;6179;51.748;8.728;2023-10-08T17:20:43;14.10;94.20
12233;DHT22;6179;51.748;8.728;2023-10-08T17:26:44;14.30;94.60
12233;DHT22;6179;51.748;8.728;2023-10-08T17:32:46;14.30;94.00
12233;DHT22;6179;51.748;8.728;2023-10-08T17:38:48;14.10;94.60
12233;DHT22;6179;51.748;8.728;2023-10-08T17:44:48;14.10;97.20
12233;DHT22;6179;51.748;8.728;2023-10-08T17:50:49;14.30;95.00
12233;DHT22;6179;51.748;8.728;2023-10-08T17:56:50;14.10;96.20
12233;DHT22;6179;51.748;8.728;2023-10-08T18:02:51;14.10;97.80
12233;DHT22;6179;51.748;8.728;2023-10-08T18:08:53;14.40;94.40
12233;DHT22;6179;51.748;8.728;2023-10-08T18:14:55;14.40;96.20
12233;DHT22;6179;51.748;8.728;2023-10-08T18:20:55;14.20;97.40
12233;DHT22;6179;51.748;8.728;2023-10-08T18:26:58;14.30;96.00
12233;DHT22;6179;51.748;8.728;2023-10-08T18:32:59;14.20;96.60
12233;DHT22;6179;51.748;8.728;2023-10-08T18:39:00;14.10;96.50
12233;DHT22;6179;51.748;8.728;2023-10-08T18:45:01;14.20;95.90
12233;DHT22;6179;51.748;8.728;2023-10-08T18:51:07;14.40;94.80
12233;DHT22;6179;51.748;8.728;2023-10-08T18:57:08;14.30;95.00
12233;DHT22;6179;51.748;8.728;2023-10-08T19:03:10;14.10;96.30
12233;DHT22;6179;51.748;8.728;2023-10-08T19:09:10;14.10;96.50
12233;DHT22;6179;51.748;8.728;2023-10-08T19:15:12;14.10;96.80
12233;DHT22;6179;51.748;8.728;2023-10-08T19:21:17;14.00;97.30
12233;DHT22;6179;51.748;8.728;2023-10-08T19:27:18;14.00;98.00
12233;DHT22;6179;51.748;8.728;2023-10-08T19:33:19;14.20;97.20
12233;DHT22;6179;51.748;8.728;2023-10-08T19:39:20;14.10;98.30
12233;DHT22;6179;51.748;8.728;2023-10-08T19:45:20;14.00;98.30
12233;DHT22;6179;51.748;8.728;2023-10-08T19:51:22;13.80;98.30
12233;DHT22;6179;51.748;8.728;2023-10-08T19:57:22;13.90;98.30
12233;DHT22;6179;51.748;8.728;2023-10-08T20:03:23;13.80;98.30
12233;DHT22;6179;51.748;8.728;2023-10-08T20:09:24;13.90;98.30
12233;DHT22;6179;51.748;8.728;2023-10-08T20:15:27;14.10;98.30
12233;DHT22;6179;51.748;8.728;2023-10-08T20:21:28;14.10;98.30
12233;DHT22;6179;51.748;8.728;2023-10-08T20:27:28;14.20;98.30
12233;DHT22;6179;51.748;8.728;2023-10-08T20:33:29;14.20;98.30
12233;DHT22;6179;51.748;8.728;2023-10-08T20:39:31;14.30;98.30
12233;DHT22;6179;51.748;8.728;2023-10-08T20:45:32;14.20;98.30
12233;DHT22;6179;51.748;8.728;2023-10-08T20:51:36;14.10;98.30
12233;DHT22;6179;51.748;8.728;2023-10-08T20:57:45;14.10;98.30
12233;DHT22;6179;51.748;8.728;2023-10-08T21:03:46;14.20;98.30
12233;DHT22;6179;51.748;8.728;2023-10-08T21:09:46;14.10;98.30
12233;DHT22;6179;51.748;8.728;2023-10-08T21:15:47;14.20;98.30
12233;DHT22;6179;51.748;8.728;2023-10-08T21:21:48;14.40;98.30
12233;DHT22;6179;51.748;8.728;2023-10-08T21:27:52;14.50;98.30
12233;DHT22;6179;51.748;8.728;2023-10-08T21:33:55;14.60;98.30
12233;DHT22;6179;51.748;8.728;2023-10-08T21:39:56;14.80;98.30
12233;DHT22;6179;51.748;8.728;2023-10-08T21:45:57;15.10;98.30
12233;DHT22;6179;51.748;8.728;2023-10-08T21:51:58;15.30;98.30
12233;DHT22;6179;51.748;8.728;2023-10-08T21:57:59;15.20;98.30
12233;DHT22;6179;51.748;8.728;2023-10-08T22:03:59;15.10;98.30
12233;DHT22;6179;51.748;8.728;2023-10-08T22:10:01;14.90;98.30
12233;DHT22;6179;51.748;8.728;2023-10-08T22:16:05;14.80;98.30
12233;DHT22;6179;51.748;8.728;2023-10-08T22:22:14;14.80;98.30
12233;DHT22;6179;51.748;8.728;2023-10-08T22:28:18;14.90;98.30
12233;DHT22;6179;51.748;8.728;2023-10-08T22:34:20;14.90;98.30
12233;DHT22;6179;51.748;8.728;2023-10-08T22:40:28;14.80;98.30
12233;DHT22;6179;51.748;8.728;2023-10-08T22:46:48;14.80;98.30
12233;DHT22;6179;51.748;8.728;2023-10-08T22:53:03;14.70;98.30
12233;DHT22;6179;51.748;8.728;2023-10-08T22:59:04;14.60;98.30
12233;DHT22;6179;51.748;8.728;2023-10-08T23:05:07;14.50;98.30
12233;DHT22;6179;51.748;8.728;2023-10-08T23:11:10;14.70;98.30
12233;DHT22;6179;51.748;8.728;2023-10-08T23:17:15;14.80;98.30
12233;DHT22;6179;51.748;8.728;2023-10-08T23:23:16;14.80;98.30
12233;DHT22;6179;51.748;8.728;2023-10-08T23:29:20;14.50;98.30
12233;DHT22;6179;51.748;8.728;2023-10-08T23:35:21;14.20;98.30
12233;DHT22;6179;51.748;8.728;2023-10-08T23:41:26;14.00;98.30
12233;DHT22;6179;51.748;8.728;2023-10-08T23:47:32;13.80;98.30
12233;DHT22;6179;51.748;8.728;2023-10-08T23:53:33;13.60;98.30
12233;DHT22;6179;51.748;8.728;2023-10-08T23:59:36;13.60;98.30
